Terminal Aerodrome Forecast
Issued by NWS Louisville, KY

Home | Current Version | Previous Version | Text Only | Print | Product List | Glossary On
Versions: 1 2 3 4 5 6 7 8 9 10 11 12 13 14 15 16 17
000
FTUS43 KLMK 180500
TAFLEX
TAF
KLEX 180526Z 1806/1906 25009KT P6SM SCT045
     FM181300 25012G20KT P6SM BKN030
     FM190000 20006KT P6SM SCT035=

USA.gov is the U.S. government's official web portal to all federal, state and local government web resources and services.